sensor_id;sensor_type;location;lat;lon;timestamp;P1;durP1;ratioP1;P2;durP2;ratioP2
19312;SDS011;9791;50.820;4.406;2023-04-08T00:01:12;13.75;;;5.45;;
19312;SDS011;9791;50.820;4.406;2023-04-08T00:03:38;12.20;;;6.00;;
19312;SDS011;9791;50.820;4.406;2023-04-08T00:06:05;13.32;;;5.70;;
19312;SDS011;9791;50.820;4.406;2023-04-08T00:08:32;11.70;;;6.03;;
19312;SDS011;9791;50.820;4.406;2023-04-08T00:10:58;16.05;;;6.45;;
19312;SDS011;9791;50.820;4.406;2023-04-08T00:13:24;13.77;;;5.65;;
19312;SDS011;9791;50.820;4.406;2023-04-08T00:15:51;16.00;;;6.20;;
19312;SDS011;9791;50.820;4.406;2023-04-08T00:18:17;18.45;;;6.70;;
19312;SDS011;9791;50.820;4.406;2023-04-08T00:20:43;12.30;;;6.05;;
19312;SDS011;9791;50.820;4.406;2023-04-08T00:23:10;21.10;;;6.38;;
19312;SDS011;9791;50.820;4.406;2023-04-08T00:25:36;17.40;;;6.53;;
19312;SDS011;9791;50.820;4.406;2023-04-08T00:28:02;11.43;;;6.18;;
19312;SDS011;9791;50.820;4.406;2023-04-08T00:30:28;13.00;;;5.75;;
19312;SDS011;9791;50.820;4.406;2023-04-08T00:32:54;16.30;;;5.78;;
19312;SDS011;9791;50.820;4.406;2023-04-08T00:35:20;16.70;;;6.05;;
19312;SDS011;9791;50.820;4.406;2023-04-08T00:37:46;13.98;;;6.35;;
19312;SDS011;9791;50.820;4.406;2023-04-08T00:40:13;14.02;;;5.68;;
19312;SDS011;9791;50.820;4.406;2023-04-08T00:42:39;19.38;;;6.43;;
19312;SDS011;9791;50.820;4.406;2023-04-08T00:45:06;12.52;;;6.35;;
19312;SDS011;9791;50.820;4.406;2023-04-08T00:47:34;14.93;;;6.32;;
19312;SDS011;9791;50.820;4.406;2023-04-08T00:50:01;18.67;;;6.07;;
19312;SDS011;9791;50.820;4.406;2023-04-08T00:52:28;16.95;;;6.15;;
19312;SDS011;9791;50.820;4.406;2023-04-08T00:54:54;17.50;;;6.57;;
19312;SDS011;9791;50.820;4.406;2023-04-08T00:57:20;19.38;;;6.65;;
19312;SDS011;9791;50.820;4.406;2023-04-08T00:59:46;16.10;;;5.53;;
19312;SDS011;9791;50.820;4.406;2023-04-08T01:05:08;12.53;;;5.67;;
19312;SDS011;9791;50.820;4.406;2023-04-08T01:07:43;15.55;;;6.00;;
19312;SDS011;9791;50.820;4.406;2023-04-08T01:10:20;16.80;;;6.20;;
19312;SDS011;9791;50.820;4.406;2023-04-08T01:12:54;14.32;;;6.70;;
19312;SDS011;9791;50.820;4.406;2023-04-08T01:15:20;16.55;;;7.25;;
19312;SDS011;9791;50.820;4.406;2023-04-08T01:17:47;12.10;;;6.13;;
19312;SDS011;9791;50.820;4.406;2023-04-08T01:20:13;14.02;;;6.70;;
19312;SDS011;9791;50.820;4.406;2023-04-08T01:22:43;13.57;;;6.03;;
19312;SDS011;9791;50.820;4.406;2023-04-08T01:25:15;16.27;;;6.97;;
19312;SDS011;9791;50.820;4.406;2023-04-08T01:27:42;18.20;;;7.07;;
19312;SDS011;9791;50.820;4.406;2023-04-08T01:30:08;15.52;;;7.03;;
19312;SDS011;9791;50.820;4.406;2023-04-08T01:32:35;10.15;;;6.28;;
19312;SDS011;9791;50.820;4.406;2023-04-08T01:35:01;11.90;;;6.35;;
19312;SDS011;9791;50.820;4.406;2023-04-08T01:37:28;19.52;;;6.72;;
19312;SDS011;9791;50.820;4.406;2023-04-08T01:39:55;15.65;;;7.25;;
19312;SDS011;9791;50.820;4.406;2023-04-08T01:42:22;16.35;;;6.15;;
19312;SDS011;9791;50.820;4.406;2023-04-08T01:44:51;17.65;;;7.10;;
19312;SDS011;9791;50.820;4.406;2023-04-08T01:47:17;18.55;;;7.32;;
19312;SDS011;9791;50.820;4.406;2023-04-08T01:49:43;16.70;;;6.25;;
19312;SDS011;9791;50.820;4.406;2023-04-08T01:52:10;14.77;;;7.07;;
19312;SDS011;9791;50.820;4.406;2023-04-08T01:54:36;16.77;;;7.30;;
19312;SDS011;9791;50.820;4.406;2023-04-08T01:57:03;15.15;;;6.53;;
19312;SDS011;9791;50.820;4.406;2023-04-08T01:59:34;17.15;;;7.38;;
19312;SDS011;9791;50.820;4.406;2023-04-08T02:02:01;14.10;;;6.75;;
19312;SDS011;9791;50.820;4.406;2023-04-08T02:04:30;17.15;;;7.22;;
19312;SDS011;9791;50.820;4.406;2023-04-08T02:06:56;17.17;;;6.43;;
19312;SDS011;9791;50.820;4.406;2023-04-08T02:09:23;15.07;;;6.32;;
19312;SDS011;9791;50.820;4.406;2023-04-08T02:11:49;19.30;;;7.25;;
19312;SDS011;9791;50.820;4.406;2023-04-08T02:14:16;19.00;;;7.35;;
19312;SDS011;9791;50.820;4.406;2023-04-08T02:16:43;18.60;;;7.22;;
19312;SDS011;9791;50.820;4.406;2023-04-08T02:19:16;17.65;;;7.13;;
19312;SDS011;9791;50.820;4.406;2023-04-08T02:21:45;17.40;;;7.63;;
19312;SDS011;9791;50.820;4.406;2023-04-08T02:24:12;13.98;;;6.75;;
19312;SDS011;9791;50.820;4.406;2023-04-08T02:26:39;14.85;;;8.57;;
19312;SDS011;9791;50.820;4.406;2023-04-08T02:29:06;17.08;;;7.32;;
19312;SDS011;9791;50.820;4.406;2023-04-08T02:31:35;13.32;;;8.20;;
19312;SDS011;9791;50.820;4.406;2023-04-08T02:34:03;17.58;;;7.63;;
19312;SDS011;9791;50.820;4.406;2023-04-08T02:36:31;16.10;;;6.88;;
19312;SDS011;9791;50.820;4.406;2023-04-08T02:38:58;21.83;;;7.15;;
19312;SDS011;9791;50.820;4.406;2023-04-08T02:41:27;15.98;;;6.28;;
19312;SDS011;9791;50.820;4.406;2023-04-08T02:43:53;13.32;;;7.75;;
19312;SDS011;9791;50.820;4.406;2023-04-08T02:46:19;13.57;;;7.00;;
19312;SDS011;9791;50.820;4.406;2023-04-08T02:48:45;16.08;;;7.05;;
19312;SDS011;9791;50.820;4.406;2023-04-08T02:51:11;16.30;;;7.82;;
19312;SDS011;9791;50.820;4.406;2023-04-08T02:53:37;14.05;;;6.90;;
19312;SDS011;9791;50.820;4.406;2023-04-08T02:56:04;13.48;;;6.70;;
19312;SDS011;9791;50.820;4.406;2023-04-08T02:58:30;13.25;;;7.15;;
19312;SDS011;9791;50.820;4.406;2023-04-08T03:00:56;10.35;;;6.55;;
19312;SDS011;9791;50.820;4.406;2023-04-08T03:03:22;17.05;;;6.95;;
19312;SDS011;9791;50.820;4.406;2023-04-08T03:05:55;16.58;;;6.93;;
19312;SDS011;9791;50.820;4.406;2023-04-08T03:08:21;15.90;;;7.40;;
19312;SDS011;9791;50.820;4.406;2023-04-08T03:10:47;14.93;;;7.95;;
19312;SDS011;9791;50.820;4.406;2023-04-08T03:13:14;20.05;;;8.70;;
19312;SDS011;9791;50.820;4.406;2023-04-08T03:15:41;12.57;;;7.22;;
19312;SDS011;9791;50.820;4.406;2023-04-08T03:18:08;13.20;;;7.50;;
19312;SDS011;9791;50.820;4.406;2023-04-08T03:20:34;14.65;;;7.25;;
19312;SDS011;9791;50.820;4.406;2023-04-08T03:23:00;14.70;;;7.10;;
19312;SDS011;9791;50.820;4.406;2023-04-08T03:25:26;15.75;;;7.75;;
19312;SDS011;9791;50.820;4.406;2023-04-08T03:27:53;13.73;;;6.78;;
19312;SDS011;9791;50.820;4.406;2023-04-08T03:30:19;13.85;;;7.68;;
19312;SDS011;9791;50.820;4.406;2023-04-08T03:32:45;16.38;;;7.88;;
19312;SDS011;9791;50.820;4.406;2023-04-08T03:35:11;16.35;;;8.05;;
19312;SDS011;9791;50.820;4.406;2023-04-08T03:37:38;17.23;;;8.52;;
19312;SDS011;9791;50.820;4.406;2023-04-08T03:40:04;16.45;;;8.57;;
19312;SDS011;9791;50.820;4.406;2023-04-08T03:42:30;13.20;;;8.55;;
19312;SDS011;9791;50.820;4.406;2023-04-08T03:44:56;14.00;;;8.63;;
19312;SDS011;9791;50.820;4.406;2023-04-08T03:47:23;11.43;;;8.35;;
19312;SDS011;9791;50.820;4.406;2023-04-08T03:49:51;17.15;;;8.93;;
19312;SDS011;9791;50.820;4.406;2023-04-08T03:52:17;14.50;;;9.30;;
19312;SDS011;9791;50.820;4.406;2023-04-08T03:54:43;17.13;;;9.85;;
19312;SDS011;9791;50.820;4.406;2023-04-08T03:57:09;20.10;;;11.15;;
19312;SDS011;9791;50.820;4.406;2023-04-08T03:59:36;23.88;;;10.70;;
19312;SDS011;9791;50.820;4.406;2023-04-08T04:02:04;22.70;;;11.15;;
19312;SDS011;9791;50.820;4.406;2023-04-08T04:04:30;19.38;;;11.15;;
19312;SDS011;9791;50.820;4.406;2023-04-08T04:06:56;17.90;;;10.63;;
19312;SDS011;9791;50.820;4.406;2023-04-08T04:09:22;23.08;;;11.68;;
19312;SDS011;9791;50.820;4.406;2023-04-08T04:11:48;22.83;;;11.25;;
19312;SDS011;9791;50.820;4.406;2023-04-08T04:14:14;22.40;;;12.05;;
19312;SDS011;9791;50.820;4.406;2023-04-08T04:16:40;24.83;;;11.77;;
19312;SDS011;9791;50.820;4.406;2023-04-08T04:19:08;25.05;;;11.27;;
19312;SDS011;9791;50.820;4.406;2023-04-08T04:21:34;24.75;;;12.15;;
19312;SDS011;9791;50.820;4.406;2023-04-08T04:24:00;22.40;;;12.05;;
19312;SDS011;9791;50.820;4.406;2023-04-08T04:26:26;18.13;;;12.38;;
19312;SDS011;9791;50.820;4.406;2023-04-08T04:28:52;25.85;;;11.88;;
19312;SDS011;9791;50.820;4.406;2023-04-08T04:31:21;23.70;;;12.18;;
19312;SDS011;9791;50.820;4.406;2023-04-08T04:33:50;18.52;;;11.50;;
19312;SDS011;9791;50.820;4.406;2023-04-08T04:36:16;30.45;;;12.93;;
19312;SDS011;9791;50.820;4.406;2023-04-08T04:38:42;26.98;;;13.50;;
19312;SDS011;9791;50.820;4.406;2023-04-08T04:41:09;21.88;;;12.85;;
19312;SDS011;9791;50.820;4.406;2023-04-08T04:43:35;24.52;;;13.18;;
19312;SDS011;9791;50.820;4.406;2023-04-08T04:46:01;31.38;;;13.90;;
19312;SDS011;9791;50.820;4.406;2023-04-08T04:48:30;27.02;;;13.13;;
19312;SDS011;9791;50.820;4.406;2023-04-08T04:51:00;21.35;;;12.35;;
19312;SDS011;9791;50.820;4.406;2023-04-08T04:53:27;27.08;;;13.90;;
19312;SDS011;9791;50.820;4.406;2023-04-08T04:55:53;26.58;;;13.43;;
19312;SDS011;9791;50.820;4.406;2023-04-08T04:58:20;23.48;;;13.40;;
19312;SDS011;9791;50.820;4.406;2023-04-08T05:00:46;23.95;;;12.98;;
19312;SDS011;9791;50.820;4.406;2023-04-08T05:03:12;24.05;;;13.02;;
19312;SDS011;9791;50.820;4.406;2023-04-08T05:05:38;25.75;;;13.90;;
19312;SDS011;9791;50.820;4.406;2023-04-08T05:08:04;24.15;;;13.80;;
19312;SDS011;9791;50.820;4.406;2023-04-08T05:10:31;24.77;;;13.57;;
19312;SDS011;9791;50.820;4.406;2023-04-08T05:12:57;24.55;;;13.25;;
19312;SDS011;9791;50.820;4.406;2023-04-08T05:15:23;22.45;;;13.43;;
19312;SDS011;9791;50.820;4.406;2023-04-08T05:17:49;24.02;;;13.70;;
19312;SDS011;9791;50.820;4.406;2023-04-08T05:20:15;29.13;;;14.23;;
19312;SDS011;9791;50.820;4.406;2023-04-08T05:22:41;28.00;;;13.45;;
19312;SDS011;9791;50.820;4.406;2023-04-08T05:25:09;25.48;;;13.07;;
19312;SDS011;9791;50.820;4.406;2023-04-08T05:27:35;28.38;;;13.60;;
19312;SDS011;9791;50.820;4.406;2023-04-08T05:30:02;28.80;;;13.35;;
19312;SDS011;9791;50.820;4.406;2023-04-08T05:32:28;23.50;;;13.25;;
19312;SDS011;9791;50.820;4.406;2023-04-08T05:34:54;29.92;;;13.80;;
19312;SDS011;9791;50.820;4.406;2023-04-08T05:37:20;30.52;;;14.23;;
19312;SDS011;9791;50.820;4.406;2023-04-08T05:39:46;24.63;;;12.90;;
19312;SDS011;9791;50.820;4.406;2023-04-08T05:42:12;24.20;;;13.55;;
19312;SDS011;9791;50.820;4.406;2023-04-08T05:44:38;27.98;;;14.20;;
19312;SDS011;9791;50.820;4.406;2023-04-08T05:47:08;25.13;;;12.75;;
19312;SDS011;9791;50.820;4.406;2023-04-08T05:49:34;25.95;;;14.25;;
19312;SDS011;9791;50.820;4.406;2023-04-08T05:52:00;25.92;;;14.43;;
19312;SDS011;9791;50.820;4.406;2023-04-08T05:54:27;27.52;;;14.15;;
19312;SDS011;9791;50.820;4.406;2023-04-08T05:56:53;19.98;;;12.30;;
19312;SDS011;9791;50.820;4.406;2023-04-08T05:59:20;26.40;;;13.23;;
19312;SDS011;9791;50.820;4.406;2023-04-08T06:01:46;28.42;;;14.57;;
19312;SDS011;9791;50.820;4.406;2023-04-08T06:04:12;26.30;;;13.23;;
19312;SDS011;9791;50.820;4.406;2023-04-08T06:06:38;24.63;;;14.02;;
19312;SDS011;9791;50.820;4.406;2023-04-08T06:09:04;31.98;;;16.50;;
19312;SDS011;9791;50.820;4.406;2023-04-08T06:11:30;29.35;;;16.52;;
19312;SDS011;9791;50.820;4.406;2023-04-08T06:13:56;28.02;;;15.07;;
19312;SDS011;9791;50.820;4.406;2023-04-08T06:16:22;29.58;;;14.55;;
19312;SDS011;9791;50.820;4.406;2023-04-08T06:18:49;23.35;;;14.98;;
19312;SDS011;9791;50.820;4.406;2023-04-08T06:21:15;29.40;;;14.52;;
19312;SDS011;9791;50.820;4.406;2023-04-08T06:23:41;25.95;;;15.30;;
19312;SDS011;9791;50.820;4.406;2023-04-08T06:26:07;23.77;;;14.65;;
19312;SDS011;9791;50.820;4.406;2023-04-08T06:28:33;20.63;;;14.00;;
19312;SDS011;9791;50.820;4.406;2023-04-08T06:30:59;25.65;;;14.75;;
19312;SDS011;9791;50.820;4.406;2023-04-08T06:33:25;31.27;;;17.65;;
19312;SDS011;9791;50.820;4.406;2023-04-08T06:35:58;35.55;;;17.67;;
19312;SDS011;9791;50.820;4.406;2023-04-08T06:38:26;45.53;;;29.02;;
19312;SDS011;9791;50.820;4.406;2023-04-08T06:40:52;30.38;;;19.48;;
19312;SDS011;9791;50.820;4.406;2023-04-08T06:43:18;28.67;;;16.15;;
19312;SDS011;9791;50.820;4.406;2023-04-08T06:45:44;25.70;;;13.88;;
19312;SDS011;9791;50.820;4.406;2023-04-08T06:48:10;22.73;;;12.93;;
19312;SDS011;9791;50.820;4.406;2023-04-08T06:50:36;21.10;;;13.15;;
19312;SDS011;9791;50.820;4.406;2023-04-08T06:53:02;25.95;;;13.25;;
19312;SDS011;9791;50.820;4.406;2023-04-08T06:55:28;21.65;;;13.20;;
19312;SDS011;9791;50.820;4.406;2023-04-08T06:57:54;21.52;;;12.40;;
19312;SDS011;9791;50.820;4.406;2023-04-08T07:00:20;30.63;;;23.00;;
19312;SDS011;9791;50.820;4.406;2023-04-08T07:02:48;39.53;;;29.05;;
19312;SDS011;9791;50.820;4.406;2023-04-08T07:05:14;23.35;;;15.27;;
19312;SDS011;9791;50.820;4.406;2023-04-08T07:07:40;24.15;;;14.60;;
19312;SDS011;9791;50.820;4.406;2023-04-08T07:10:06;22.38;;;14.52;;
19312;SDS011;9791;50.820;4.406;2023-04-08T07:12:32;24.67;;;14.52;;
19312;SDS011;9791;50.820;4.406;2023-04-08T07:14:58;17.92;;;11.43;;
19312;SDS011;9791;50.820;4.406;2023-04-08T07:17:25;18.92;;;11.07;;
19312;SDS011;9791;50.820;4.406;2023-04-08T07:19:52;17.88;;;10.73;;
19312;SDS011;9791;50.820;4.406;2023-04-08T07:22:18;18.08;;;10.35;;
19312;SDS011;9791;50.820;4.406;2023-04-08T07:24:44;17.17;;;10.80;;
19312;SDS011;9791;50.820;4.406;2023-04-08T07:27:13;23.20;;;11.00;;
19312;SDS011;9791;50.820;4.406;2023-04-08T07:29:40;18.08;;;10.75;;
19312;SDS011;9791;50.820;4.406;2023-04-08T07:32:06;18.70;;;9.65;;
19312;SDS011;9791;50.820;4.406;2023-04-08T07:34:35;20.23;;;11.48;;
19312;SDS011;9791;50.820;4.406;2023-04-08T07:37:01;16.10;;;8.90;;
19312;SDS011;9791;50.820;4.406;2023-04-08T07:39:27;15.50;;;9.07;;
19312;SDS011;9791;50.820;4.406;2023-04-08T07:41:53;15.57;;;9.55;;
19312;SDS011;9791;50.820;4.406;2023-04-08T07:44:19;17.08;;;9.30;;
19312;SDS011;9791;50.820;4.406;2023-04-08T07:46:45;13.50;;;7.85;;
19312;SDS011;9791;50.820;4.406;2023-04-08T07:49:15;12.23;;;7.95;;
19312;SDS011;9791;50.820;4.406;2023-04-08T07:51:41;13.82;;;8.70;;
19312;SDS011;9791;50.820;4.406;2023-04-08T07:54:09;18.85;;;10.70;;
19312;SDS011;9791;50.820;4.406;2023-04-08T07:56:36;13.55;;;8.43;;
19312;SDS011;9791;50.820;4.406;2023-04-08T07:59:05;15.45;;;9.38;;
19312;SDS011;9791;50.820;4.406;2023-04-08T08:01:32;17.92;;;9.55;;
19312;SDS011;9791;50.820;4.406;2023-04-08T08:03:59;16.60;;;8.90;;
19312;SDS011;9791;50.820;4.406;2023-04-08T08:06:25;14.80;;;7.57;;
19312;SDS011;9791;50.820;4.406;2023-04-08T08:08:52;11.95;;;7.97;;
19312;SDS011;9791;50.820;4.406;2023-04-08T08:11:18;16.15;;;9.02;;
19312;SDS011;9791;50.820;4.406;2023-04-08T08:13:45;17.65;;;9.38;;
19312;SDS011;9791;50.820;4.406;2023-04-08T08:16:11;14.25;;;8.98;;
19312;SDS011;9791;50.820;4.406;2023-04-08T08:18:37;17.25;;;10.73;;
19312;SDS011;9791;50.820;4.406;2023-04-08T08:21:04;14.45;;;8.98;;
19312;SDS011;9791;50.820;4.406;2023-04-08T08:23:30;16.73;;;8.13;;
19312;SDS011;9791;50.820;4.406;2023-04-08T08:26:00;14.38;;;8.32;;
19312;SDS011;9791;50.820;4.406;2023-04-08T08:28:27;13.30;;;7.55;;
19312;SDS011;9791;50.820;4.406;2023-04-08T08:30:53;13.20;;;7.90;;
19312;SDS011;9791;50.820;4.406;2023-04-08T08:33:19;15.00;;;8.48;;
19312;SDS011;9791;50.820;4.406;2023-04-08T08:35:45;14.50;;;8.15;;
19312;SDS011;9791;50.820;4.406;2023-04-08T08:38:11;15.13;;;8.80;;
19312;SDS011;9791;50.820;4.406;2023-04-08T08:40:38;14.43;;;8.90;;
19312;SDS011;9791;50.820;4.406;2023-04-08T08:43:04;12.90;;;8.30;;
19312;SDS011;9791;50.820;4.406;2023-04-08T08:45:30;18.48;;;12.00;;
19312;SDS011;9791;50.820;4.406;2023-04-08T08:47:57;20.05;;;14.40;;
19312;SDS011;9791;50.820;4.406;2023-04-08T08:50:23;21.40;;;15.27;;
19312;SDS011;9791;50.820;4.406;2023-04-08T08:52:50;22.50;;;16.30;;
19312;SDS011;9791;50.820;4.406;2023-04-08T08:55:17;16.88;;;11.82;;
19312;SDS011;9791;50.820;4.406;2023-04-08T08:57:43;12.63;;;8.40;;
19312;SDS011;9791;50.820;4.406;2023-04-08T09:00:11;19.35;;;11.57;;
19312;SDS011;9791;50.820;4.406;2023-04-08T09:02:40;18.63;;;11.40;;
19312;SDS011;9791;50.820;4.406;2023-04-08T09:05:06;16.08;;;9.48;;
19312;SDS011;9791;50.820;4.406;2023-04-08T09:07:35;22.08;;;12.75;;
19312;SDS011;9791;50.820;4.406;2023-04-08T09:10:04;22.25;;;13.07;;
19312;SDS011;9791;50.820;4.406;2023-04-08T09:12:30;23.27;;;12.98;;
19312;SDS011;9791;50.820;4.406;2023-04-08T09:15:03;15.20;;;9.10;;
19312;SDS011;9791;50.820;4.406;2023-04-08T09:17:38;13.57;;;7.80;;
19312;SDS011;9791;50.820;4.406;2023-04-08T09:20:08;14.77;;;7.70;;
19312;SDS011;9791;50.820;4.406;2023-04-08T09:25:27;16.75;;;9.73;;
19312;SDS011;9791;50.820;4.406;2023-04-08T09:27:53;17.25;;;10.85;;
19312;SDS011;9791;50.820;4.406;2023-04-08T09:30:20;15.23;;;9.80;;
19312;SDS011;9791;50.820;4.406;2023-04-08T09:32:50;14.77;;;9.35;;
19312;SDS011;9791;50.820;4.406;2023-04-08T09:35:17;14.57;;;7.88;;
19312;SDS011;9791;50.820;4.406;2023-04-08T09:37:43;13.82;;;7.75;;
19312;SDS011;9791;50.820;4.406;2023-04-08T09:40:10;10.95;;;6.93;;
19312;SDS011;9791;50.820;4.406;2023-04-08T09:42:38;9.43;;;6.35;;
19312;SDS011;9791;50.820;4.406;2023-04-08T09:45:14;15.38;;;8.85;;
19312;SDS011;9791;50.820;4.406;2023-04-08T09:50:39;15.95;;;9.85;;
19312;SDS011;9791;50.820;4.406;2023-04-08T09:53:13;16.95;;;8.43;;
19312;SDS011;9791;50.820;4.406;2023-04-08T09:55:42;10.95;;;8.30;;
19312;SDS011;9791;50.820;4.406;2023-04-08T09:58:15;16.23;;;7.80;;
19312;SDS011;9791;50.820;4.406;2023-04-08T10:00:45;12.63;;;7.15;;
19312;SDS011;9791;50.820;4.406;2023-04-08T10:05:49;17.92;;;8.18;;
19312;SDS011;9791;50.820;4.406;2023-04-08T10:08:17;10.65;;;6.82;;
19312;SDS011;9791;50.820;4.406;2023-04-08T10:10:43;13.13;;;7.45;;
19312;SDS011;9791;50.820;4.406;2023-04-08T10:13:10;10.00;;;5.82;;
19312;SDS011;9791;50.820;4.406;2023-04-08T10:15:36;11.85;;;5.95;;
19312;SDS011;9791;50.820;4.406;2023-04-08T10:23:03;11.48;;;7.80;;
19312;SDS011;9791;50.820;4.406;2023-04-08T10:25:32;11.02;;;7.72;;
19312;SDS011;9791;50.820;4.406;2023-04-08T10:27:59;12.68;;;7.45;;
19312;SDS011;9791;50.820;4.406;2023-04-08T10:32:52;16.48;;;7.78;;
19312;SDS011;9791;50.820;4.406;2023-04-08T10:35:40;14.23;;;8.18;;
19312;SDS011;9791;50.820;4.406;2023-04-08T10:38:07;13.75;;;7.40;;
19312;SDS011;9791;50.820;4.406;2023-04-08T10:40:37;11.55;;;7.28;;
19312;SDS011;9791;50.820;4.406;2023-04-08T10:43:03;13.43;;;7.97;;
19312;SDS011;9791;50.820;4.406;2023-04-08T10:45:29;11.18;;;7.65;;
19312;SDS011;9791;50.820;4.406;2023-04-08T10:47:56;14.98;;;7.95;;
19312;SDS011;9791;50.820;4.406;2023-04-08T10:50:22;17.73;;;9.45;;
19312;SDS011;9791;50.820;4.406;2023-04-08T10:52:49;15.38;;;8.73;;
19312;SDS011;9791;50.820;4.406;2023-04-08T10:55:16;18.52;;;12.68;;
19312;SDS011;9791;50.820;4.406;2023-04-08T10:57:46;15.90;;;10.57;;
19312;SDS011;9791;50.820;4.406;2023-04-08T11:00:16;16.05;;;9.45;;
19312;SDS011;9791;50.820;4.406;2023-04-08T11:02:43;17.52;;;9.55;;
19312;SDS011;9791;50.820;4.406;2023-04-08T11:05:10;16.08;;;9.13;;
19312;SDS011;9791;50.820;4.406;2023-04-08T11:07:42;11.20;;;6.35;;
19312;SDS011;9791;50.820;4.406;2023-04-08T11:10:08;15.30;;;7.28;;
19312;SDS011;9791;50.820;4.406;2023-04-08T11:12:34;13.80;;;7.38;;
19312;SDS011;9791;50.820;4.406;2023-04-08T11:15:03;9.70;;;6.40;;
19312;SDS011;9791;50.820;4.406;2023-04-08T11:17:30;12.75;;;8.40;;
19312;SDS011;9791;50.820;4.406;2023-04-08T11:19:59;11.13;;;7.53;;
19312;SDS011;9791;50.820;4.406;2023-04-08T11:22:30;11.68;;;7.45;;
19312;SDS011;9791;50.820;4.406;2023-04-08T11:24:57;13.75;;;7.57;;
19312;SDS011;9791;50.820;4.406;2023-04-08T11:27:24;11.60;;;7.78;;
19312;SDS011;9791;50.820;4.406;2023-04-08T11:29:54;12.85;;;8.32;;
19312;SDS011;9791;50.820;4.406;2023-04-08T11:32:21;13.07;;;7.70;;
19312;SDS011;9791;50.820;4.406;2023-04-08T11:34:47;13.27;;;7.22;;
19312;SDS011;9791;50.820;4.406;2023-04-08T11:37:14;12.32;;;7.60;;
19312;SDS011;9791;50.820;4.406;2023-04-08T11:39:43;12.80;;;7.20;;
19312;SDS011;9791;50.820;4.406;2023-04-08T11:42:24;12.25;;;7.50;;
19312;SDS011;9791;50.820;4.406;2023-04-08T11:44:50;13.93;;;6.95;;
19312;SDS011;9791;50.820;4.406;2023-04-08T11:47:16;13.20;;;7.65;;
19312;SDS011;9791;50.820;4.406;2023-04-08T11:49:45;8.98;;;5.75;;
19312;SDS011;9791;50.820;4.406;2023-04-08T11:52:11;10.40;;;6.05;;
19312;SDS011;9791;50.820;4.406;2023-04-08T11:54:41;13.10;;;6.70;;
19312;SDS011;9791;50.820;4.406;2023-04-08T11:57:07;12.88;;;7.07;;
19312;SDS011;9791;50.820;4.406;2023-04-08T11:59:34;9.55;;;6.97;;
19312;SDS011;9791;50.820;4.406;2023-04-08T12:02:01;12.40;;;7.82;;
19312;SDS011;9791;50.820;4.406;2023-04-08T12:04:27;12.27;;;8.02;;
19312;SDS011;9791;50.820;4.406;2023-04-08T12:06:54;12.18;;;8.23;;
19312;SDS011;9791;50.820;4.406;2023-04-08T12:09:20;16.52;;;8.27;;
19312;SDS011;9791;50.820;4.406;2023-04-08T12:11:46;12.68;;;7.00;;
19312;SDS011;9791;50.820;4.406;2023-04-08T12:14:13;12.52;;;9.32;;
19312;SDS011;9791;50.820;4.406;2023-04-08T12:16:39;15.32;;;10.27;;
19312;SDS011;9791;50.820;4.406;2023-04-08T12:19:05;13.63;;;9.52;;
19312;SDS011;9791;50.820;4.406;2023-04-08T12:21:31;15.80;;;10.43;;
19312;SDS011;9791;50.820;4.406;2023-04-08T12:23:58;14.57;;;9.70;;
19312;SDS011;9791;50.820;4.406;2023-04-08T12:26:25;16.05;;;10.05;;
19312;SDS011;9791;50.820;4.406;2023-04-08T12:28:51;15.50;;;10.30;;
19312;SDS011;9791;50.820;4.406;2023-04-08T12:31:17;14.55;;;9.38;;
19312;SDS011;9791;50.820;4.406;2023-04-08T12:33:43;13.98;;;9.70;;
19312;SDS011;9791;50.820;4.406;2023-04-08T12:36:09;13.40;;;9.00;;
19312;SDS011;9791;50.820;4.406;2023-04-08T12:38:35;13.52;;;9.30;;
19312;SDS011;9791;50.820;4.406;2023-04-08T12:41:02;16.60;;;11.93;;
19312;SDS011;9791;50.820;4.406;2023-04-08T12:43:28;15.77;;;10.30;;
19312;SDS011;9791;50.820;4.406;2023-04-08T12:45:56;12.93;;;9.10;;
19312;SDS011;9791;50.820;4.406;2023-04-08T12:48:22;14.90;;;10.35;;
19312;SDS011;9791;50.820;4.406;2023-04-08T12:50:48;13.43;;;9.60;;
19312;SDS011;9791;50.820;4.406;2023-04-08T12:53:14;17.00;;;9.77;;
19312;SDS011;9791;50.820;4.406;2023-04-08T12:55:40;11.60;;;8.48;;
19312;SDS011;9791;50.820;4.406;2023-04-08T12:58:06;12.05;;;7.65;;
19312;SDS011;9791;50.820;4.406;2023-04-08T13:00:33;12.88;;;7.75;;
19312;SDS011;9791;50.820;4.406;2023-04-08T13:03:01;11.90;;;7.65;;
19312;SDS011;9791;50.820;4.406;2023-04-08T13:05:27;12.90;;;8.80;;
19312;SDS011;9791;50.820;4.406;2023-04-08T13:07:53;11.48;;;7.85;;
19312;SDS011;9791;50.820;4.406;2023-04-08T13:10:19;11.80;;;8.10;;
19312;SDS011;9791;50.820;4.406;2023-04-08T13:12:45;13.25;;;9.10;;
19312;SDS011;9791;50.820;4.406;2023-04-08T13:15:12;13.50;;;9.38;;
19312;SDS011;9791;50.820;4.406;2023-04-08T13:17:38;12.85;;;8.82;;
19312;SDS011;9791;50.820;4.406;2023-04-08T13:20:05;11.35;;;8.30;;
19312;SDS011;9791;50.820;4.406;2023-04-08T13:22:33;13.70;;;7.57;;
19312;SDS011;9791;50.820;4.406;2023-04-08T13:24:59;13.18;;;8.35;;
19312;SDS011;9791;50.820;4.406;2023-04-08T13:27:26;12.32;;;8.43;;
19312;SDS011;9791;50.820;4.406;2023-04-08T13:29:52;19.25;;;8.93;;
19312;SDS011;9791;50.820;4.406;2023-04-08T13:32:18;14.52;;;9.18;;
19312;SDS011;9791;50.820;4.406;2023-04-08T13:34:44;11.90;;;8.88;;
19312;SDS011;9791;50.820;4.406;2023-04-08T13:37:10;13.25;;;8.52;;
19312;SDS011;9791;50.820;4.406;2023-04-08T13:39:36;14.75;;;8.57;;
19312;SDS011;9791;50.820;4.406;2023-04-08T13:42:02;15.25;;;9.40;;
19312;SDS011;9791;50.820;4.406;2023-04-08T13:44:28;13.68;;;8.40;;
19312;SDS011;9791;50.820;4.406;2023-04-08T13:46:54;14.27;;;9.35;;
19312;SDS011;9791;50.820;4.406;2023-04-08T13:49:20;12.55;;;8.93;;
19312;SDS011;9791;50.820;4.406;2023-04-08T13:51:46;15.32;;;8.70;;
19312;SDS011;9791;50.820;4.406;2023-04-08T13:54:12;17.33;;;10.45;;
19312;SDS011;9791;50.820;4.406;2023-04-08T13:56:38;17.67;;;10.65;;
19312;SDS011;9791;50.820;4.406;2023-04-08T13:59:04;13.52;;;8.23;;
19312;SDS011;9791;50.820;4.406;2023-04-08T14:01:31;11.98;;;7.70;;
19312;SDS011;9791;50.820;4.406;2023-04-08T14:03:57;14.18;;;7.97;;
19312;SDS011;9791;50.820;4.406;2023-04-08T14:06:23;12.55;;;8.00;;
19312;SDS011;9791;50.820;4.406;2023-04-08T14:08:50;12.20;;;7.65;;
19312;SDS011;9791;50.820;4.406;2023-04-08T14:11:16;11.30;;;8.00;;
19312;SDS011;9791;50.820;4.406;2023-04-08T14:13:42;14.00;;;8.45;;
19312;SDS011;9791;50.820;4.406;2023-04-08T14:16:08;13.00;;;8.63;;
19312;SDS011;9791;50.820;4.406;2023-04-08T14:18:34;10.93;;;8.27;;
19312;SDS011;9791;50.820;4.406;2023-04-08T14:21:01;12.45;;;8.27;;
19312;SDS011;9791;50.820;4.406;2023-04-08T14:23:28;11.68;;;8.00;;
19312;SDS011;9791;50.820;4.406;2023-04-08T14:25:54;12.88;;;8.65;;
19312;SDS011;9791;50.820;4.406;2023-04-08T14:28:20;13.25;;;8.32;;
19312;SDS011;9791;50.820;4.406;2023-04-08T14:30:46;14.32;;;9.10;;
19312;SDS011;9791;50.820;4.406;2023-04-08T14:33:12;12.95;;;8.80;;
19312;SDS011;9791;50.820;4.406;2023-04-08T14:35:38;12.15;;;8.90;;
19312;SDS011;9791;50.820;4.406;2023-04-08T14:38:04;13.52;;;9.77;;
19312;SDS011;9791;50.820;4.406;2023-04-08T14:40:31;16.13;;;10.52;;
19312;SDS011;9791;50.820;4.406;2023-04-08T14:42:57;18.00;;;9.88;;
19312;SDS011;9791;50.820;4.406;2023-04-08T14:45:23;14.52;;;10.13;;
19312;SDS011;9791;50.820;4.406;2023-04-08T14:47:49;17.17;;;12.50;;
19312;SDS011;9791;50.820;4.406;2023-04-08T14:50:15;15.63;;;9.20;;
19312;SDS011;9791;50.820;4.406;2023-04-08T14:52:42;16.73;;;10.68;;
19312;SDS011;9791;50.820;4.406;2023-04-08T14:55:13;18.90;;;11.50;;
19312;SDS011;9791;50.820;4.406;2023-04-08T14:57:40;13.85;;;10.07;;
19312;SDS011;9791;50.820;4.406;2023-04-08T15:00:06;15.13;;;10.48;;